createdAt,value
2022-09-18T00:01:42.533Z,96761.56
2022-09-18T00:04:15.032Z,96764.19
2022-09-18T00:06:45.893Z,96760.81
2022-09-18T00:09:16.891Z,96769.78
2022-09-18T00:11:48.167Z,96761.94
2022-09-18T00:14:20.497Z,96771.84
2022-09-18T00:16:49.818Z,96771.19
2022-09-18T00:19:20.194Z,96772.13
2022-09-18T00:21:51.605Z,96777.69
2022-09-18T00:24:22.250Z,96773.50
2022-09-18T00:26:51.131Z,96771.41
2022-09-18T00:29:19.787Z,96774.72
2022-09-18T00:31:48.663Z,96768.38
2022-09-18T00:34:18.795Z,96778.16
2022-09-18T00:36:47.100Z,96779.44
2022-09-18T00:39:16.221Z,96782.66
2022-09-18T00:41:45.560Z,96777.06
2022-09-18T00:44:39.100Z,96784.25
2022-09-18T00:47:26.590Z,96785.06
2022-09-18T00:50:03.287Z,96779.94
2022-09-18T00:52:43.396Z,96783.16
2022-09-18T00:55:13.032Z,96782.38
2022-09-18T00:57:47.960Z,96787.84
2022-09-18T01:00:16.862Z,96785.28
2022-09-18T01:02:48.601Z,96786.59
2022-09-18T01:05:30.969Z,96792.03
2022-09-18T01:08:36.990Z,96794.75
2022-09-18T01:11:31.448Z,96789.97
2022-09-18T01:14:18.151Z,96791.75
2022-09-18T01:16:59.949Z,96794.19
2022-09-18T01:20:31.747Z,96793.22
2022-09-18T01:23:38.238Z,96790.81
2022-09-18T01:26:28.512Z,96784.88
2022-09-18T01:29:06.237Z,96783.91
2022-09-18T01:31:45.993Z,96792.84
2022-09-18T01:34:22.067Z,96786.31
2022-09-18T01:36:59.907Z,96783.56
2022-09-18T01:39:38.654Z,96785.97
2022-09-18T01:42:11.096Z,96783.25
2022-09-18T01:44:46.029Z,96774.06
2022-09-18T01:47:19.077Z,96775.84
2022-09-18T01:49:53.292Z,96774.53
2022-09-18T01:52:29.502Z,96770.88
2022-09-18T01:55:01.836Z,96770.88
2022-09-18T01:57:40.868Z,96766.19
2022-09-18T02:00:13.927Z,96766.81
2022-09-18T02:02:52.232Z,96768.53
2022-09-18T02:05:30.501Z,96774.13
2022-09-18T02:08:10.490Z,96763.81
2022-09-18T02:10:49.137Z,96759.13
2022-09-18T02:13:25.340Z,96753.00
2022-09-18T02:16:04.512Z,96748.38
2022-09-18T02:18:38.599Z,96768.81
2022-09-18T02:21:14.374Z,96761.78
2022-09-18T02:23:44.137Z,96759.78
2022-09-18T02:26:15.699Z,96752.50
2022-09-18T02:28:48.218Z,96746.63
2022-09-18T02:31:18.000Z,96750.78
2022-09-18T02:33:46.292Z,96753.13
2022-09-18T02:36:57.037Z,96759.56
2022-09-18T02:39:48.882Z,96756.22
2022-09-18T02:42:40.134Z,96760.22
2022-09-18T02:45:24.569Z,96752.06
2022-09-18T02:48:35.895Z,96759.75
2022-09-18T02:51:14.283Z,96760.53
2022-09-18T02:53:53.118Z,96757.19
2022-09-18T02:56:32.570Z,96760.84
2022-09-18T02:59:10.999Z,96758.31
2022-09-18T03:01:43.557Z,96765.03
2022-09-18T03:04:20.462Z,96754.16
2022-09-18T03:07:02.303Z,96758.81
2022-09-18T03:09:32.930Z,96753.84
2022-09-18T03:12:02.022Z,96750.81
2022-09-18T03:14:34.399Z,96751.75
2022-09-18T03:17:03.219Z,96751.94
2022-09-18T03:19:34.522Z,96755.66
2022-09-18T03:22:04.209Z,96747.16
2022-09-18T03:24:36.310Z,96756.94
2022-09-18T03:27:06.921Z,96761.13
2022-09-18T03:29:35.446Z,96753.41
2022-09-18T03:32:05.183Z,96743.31
2022-09-18T03:34:43.393Z,96752.63
2022-09-18T03:37:11.768Z,96754.88
2022-09-18T03:39:41.051Z,96756.13
2022-09-18T03:42:13.113Z,96754.53
2022-09-18T03:44:41.855Z,96761.56
2022-09-18T03:47:21.223Z,96760.28
2022-09-18T03:49:51.139Z,96754.19
2022-09-18T03:52:20.816Z,96764.97
2022-09-18T03:54:57.414Z,96767.50
2022-09-18T03:58:03.941Z,96766.41
2022-09-18T04:00:45.215Z,96773.25
2022-09-18T04:03:21.622Z,96774.38
2022-09-18T04:06:23.534Z,96771.66
2022-09-18T04:09:21.001Z,96773.78
2022-09-18T04:11:52.136Z,96768.94
2022-09-18T04:14:20.879Z,96762.72
2022-09-18T04:16:49.924Z,96758.06
2022-09-18T04:19:18.249Z,96763.00
2022-09-18T04:21:48.326Z,96769.91
2022-09-18T04:24:16.587Z,96773.78
2022-09-18T04:26:47.873Z,96773.25
2022-09-18T04:29:16.334Z,96775.03
2022-09-18T04:31:45.635Z,96772.00
2022-09-18T04:34:17.534Z,96778.78
2022-09-18T04:36:47.598Z,96781.00
2022-09-18T04:39:16.044Z,96787.88
2022-09-18T04:41:45.507Z,96777.28
2022-09-18T04:44:15.729Z,96771.53
2022-09-18T04:46:44.945Z,96775.34
2022-09-18T04:49:14.800Z,96773.78
2022-09-18T04:51:43.688Z,96781.41
2022-09-18T04:54:14.022Z,96781.09
2022-09-18T04:56:42.458Z,96776.50
2022-09-18T04:59:11.084Z,96781.25
2022-09-18T05:01:42.821Z,96787.50
2022-09-18T05:04:16.384Z,96782.69
2022-09-18T05:06:59.909Z,96775.50
2022-09-18T05:09:29.581Z,96784.78
2022-09-18T05:11:58.028Z,96793.13
2022-09-18T05:14:26.666Z,96798.88
2022-09-18T05:16:59.936Z,96785.75
2022-09-18T05:19:36.348Z,96795.84
2022-09-18T05:22:13.505Z,96793.63
2022-09-18T05:24:48.085Z,96810.25
2022-09-18T05:27:16.573Z,96796.66
2022-09-18T05:29:45.565Z,96804.31
2022-09-18T05:32:20.292Z,96799.38
2022-09-18T05:34:49.238Z,96797.75
2022-09-18T05:37:19.791Z,96801.16
2022-09-18T05:39:54.656Z,96801.34
2022-09-18T05:42:23.069Z,96809.69
2022-09-18T05:44:51.401Z,96808.75
2022-09-18T05:47:24.597Z,96806.03
2022-09-18T05:49:52.884Z,96805.41
2022-09-18T05:52:24.963Z,96813.44
2022-09-18T05:54:55.605Z,96811.84
2022-09-18T05:57:23.925Z,96805.53
2022-09-18T05:59:52.463Z,96815.03
2022-09-18T06:02:21.498Z,96817.28
2022-09-18T06:05:10.325Z,96826.28
2022-09-18T06:07:39.597Z,96823.72
2022-09-18T06:10:09.919Z,96819.88
2022-09-18T06:12:38.167Z,96820.50
2022-09-18T06:15:08.521Z,96825.16
2022-09-18T06:17:37.858Z,96822.28
2022-09-18T06:20:09.401Z,96825.03
2022-09-18T06:22:38.056Z,96820.53
2022-09-18T06:25:11.431Z,96821.38
2022-09-18T06:27:40.117Z,96820.38
2022-09-18T06:30:09.773Z,96824.19
2022-09-18T06:32:38.068Z,96817.41
2022-09-18T06:35:07.897Z,96820.94
2022-09-18T06:37:36.973Z,96811.97
2022-09-18T06:40:26.673Z,96819.81
2022-09-18T06:43:13.698Z,96815.03
2022-09-18T06:46:02.242Z,96825.41
2022-09-18T06:48:38.235Z,96823.97
2022-09-18T06:51:07.702Z,96827.00
2022-09-18T06:53:48.871Z,96829.44
2022-09-18T06:56:18.564Z,96832.88
2022-09-18T06:58:46.804Z,96836.75
2022-09-18T07:01:20.973Z,96836.88
2022-09-18T07:03:52.280Z,96837.19
2022-09-18T07:06:27.305Z,96840.53
2022-09-18T07:08:57.261Z,96832.88
2022-09-18T07:11:51.144Z,96844.88
2022-09-18T07:14:19.402Z,96843.56
2022-09-18T07:16:50.031Z,96839.13
2022-09-18T07:19:19.405Z,96837.69
2022-09-18T07:21:47.708Z,96823.78
2022-09-18T07:24:16.132Z,96832.25
2022-09-18T07:26:44.941Z,96833.06
2022-09-18T07:29:14.682Z,96834.47
2022-09-18T07:31:43.023Z,96837.91
2022-09-18T07:34:13.080Z,96834.56
2022-09-18T07:36:41.366Z,96838.91
2022-09-18T07:39:09.664Z,96830.91
2022-09-18T07:41:57.243Z,96841.00
2022-09-18T07:44:27.645Z,96841.97
2022-09-18T07:46:56.289Z,96826.63
2022-09-18T07:49:25.330Z,96833.41
2022-09-18T07:51:53.939Z,96840.13
2022-09-18T07:54:22.268Z,96842.06
2022-09-18T07:57:13.323Z,96839.22
2022-09-18T07:59:57.020Z,96839.44
2022-09-18T08:02:25.887Z,96843.97
2022-09-18T08:04:55.216Z,96849.56
2022-09-18T08:07:36.649Z,96850.19
2022-09-18T08:10:22.619Z,96858.19
2022-09-18T08:13:17.013Z,96853.91
2022-09-18T08:15:59.393Z,96852.59
2022-09-18T08:18:50.581Z,96848.75
2022-09-18T08:21:51.239Z,96847.47
2022-09-18T08:24:19.726Z,96857.75
2022-09-18T08:26:48.376Z,96847.66
2022-09-18T08:29:19.206Z,96853.13
2022-09-18T08:31:55.643Z,96853.44
2022-09-18T08:34:24.532Z,96856.78
2022-09-18T08:36:53.175Z,96854.88
2022-09-18T08:39:26.832Z,96854.22
2022-09-18T08:42:37.670Z,96853.75
2022-09-18T08:45:32.302Z,96857.78
2022-09-18T08:48:12.890Z,96854.09
2022-09-18T08:50:55.969Z,96864.66
2022-09-18T08:53:33.945Z,96858.09
2022-09-18T08:56:26.538Z,96860.38
2022-09-18T08:59:29.062Z,96862.78
2022-09-18T09:02:24.963Z,96865.19
2022-09-18T09:05:04.476Z,96863.44
2022-09-18T09:08:07.966Z,96866.75
2022-09-18T09:10:47.128Z,96864.88
2022-09-18T09:13:55.225Z,96865.66
2022-09-18T09:16:34.498Z,96867.28
2022-09-18T09:19:21.159Z,96869.19
2022-09-18T09:22:04.808Z,96867.28
2022-09-18T09:24:37.336Z,96867.75
2022-09-18T09:27:20.929Z,96866.59
2022-09-18T09:30:18.482Z,96866.59
2022-09-18T09:33:22.359Z,96865.34
2022-09-18T09:36:15.032Z,96871.13
2022-09-18T09:38:59.006Z,96870.97
2022-09-18T09:41:38.246Z,96870.47
2022-09-18T09:44:30.114Z,96869.69
2022-09-18T09:47:15.718Z,96864.28
2022-09-18T09:50:01.061Z,96859.00
2022-09-18T09:52:31.885Z,96872.16
2022-09-18T09:55:27.207Z,96862.84
2022-09-18T09:58:15.663Z,96860.59
2022-09-18T10:01:02.621Z,96868.41
2022-09-18T10:03:45.975Z,96860.38
2022-09-18T10:06:34.431Z,96865.38
2022-09-18T10:09:15.546Z,96864.59
2022-09-18T10:11:59.641Z,96867.31
2022-09-18T10:14:36.469Z,96861.53
2022-09-18T10:17:07.152Z,96860.25
2022-09-18T10:19:40.375Z,96861.72
2022-09-18T10:22:14.425Z,96863.19
2022-09-18T10:25:01.839Z,96863.81
2022-09-18T10:27:32.711Z,96866.38
2022-09-18T10:30:01.017Z,96863.44
2022-09-18T10:32:43.827Z,96853.94
2022-09-18T10:35:46.305Z,96861.63
2022-09-18T10:38:34.734Z,96863.09
2022-09-18T10:41:35.721Z,96862.94
2022-09-18T10:44:23.587Z,96863.09
2022-09-18T10:47:04.815Z,96863.56
2022-09-18T10:49:37.505Z,96863.19
2022-09-18T10:52:30.032Z,96854.19
2022-09-18T10:55:17.139Z,96868.53
2022-09-18T10:58:08.297Z,96866.09
2022-09-18T11:00:49.564Z,96858.56
2022-09-18T11:03:26.757Z,96859.31
2022-09-18T11:05:59.804Z,96858.22
2022-09-18T11:08:33.808Z,96866.75
2022-09-18T11:11:06.962Z,96860.31
2022-09-18T11:13:45.877Z,96857.88
2022-09-18T11:16:27.190Z,96854.59
2022-09-18T11:19:13.230Z,96846.03
2022-09-18T11:21:48.431Z,96844.97
2022-09-18T11:24:25.170Z,96847.50
2022-09-18T11:27:01.819Z,96841.81
2022-09-18T11:29:33.962Z,96831.94
2022-09-18T11:32:18.196Z,96847.50
2022-09-18T11:34:53.747Z,96841.69
2022-09-18T11:37:32.854Z,96830.31
2022-09-18T11:40:07.673Z,96825.59
2022-09-18T11:42:45.978Z,96834.03
2022-09-18T11:45:41.829Z,96824.84
2022-09-18T11:48:25.636Z,96826.66
2022-09-18T11:50:58.431Z,96828.94
2022-09-18T11:53:31.278Z,96819.72
2022-09-18T11:56:08.161Z,96816.09
2022-09-18T11:58:45.094Z,96818.94
2022-09-18T12:01:27.473Z,96822.34
2022-09-18T12:04:07.722Z,96826.78
2022-09-18T12:06:45.210Z,96833.47
2022-09-18T12:09:19.915Z,96821.34
2022-09-18T12:12:00.516Z,96819.38
2022-09-18T12:14:41.092Z,96819.13
2022-09-18T12:17:28.824Z,96817.56
2022-09-18T12:20:03.427Z,96813.97
2022-09-18T12:22:44.113Z,96809.47
2022-09-18T12:25:17.925Z,96806.22
2022-09-18T12:28:36.093Z,96813.16
2022-09-18T12:31:15.409Z,96799.13
2022-09-18T12:33:56.155Z,96803.22
2022-09-18T12:36:50.442Z,96812.91
2022-09-18T12:39:49.323Z,96810.16
2022-09-18T12:42:31.367Z,96804.50
2022-09-18T12:45:36.456Z,96820.13
2022-09-18T12:48:36.829Z,96808.47
2022-09-18T12:51:29.844Z,96798.34
2022-09-18T12:54:20.900Z,96804.41
2022-09-18T12:57:11.558Z,96799.69
2022-09-18T13:00:00.111Z,96807.22
2022-09-18T13:02:51.617Z,96800.34
2022-09-18T13:05:29.375Z,96802.19
2022-09-18T13:08:06.576Z,96797.66
2022-09-18T13:10:42.591Z,96788.28
2022-09-18T13:13:17.201Z,96786.66
2022-09-18T13:15:52.623Z,96785.75
2022-09-18T13:18:36.216Z,96778.88
2022-09-18T13:21:19.162Z,96779.78
2022-09-18T13:23:49.172Z,96766.44
2022-09-18T13:26:20.957Z,96768.03
2022-09-18T13:28:50.446Z,96767.94
2022-09-18T13:31:28.850Z,96763.47
2022-09-18T13:34:01.370Z,96754.66
2022-09-18T13:36:35.367Z,96748.94
2022-09-18T13:39:08.244Z,96750.75
2022-09-18T13:41:47.592Z,96754.63
2022-09-18T13:44:23.005Z,96751.09
2022-09-18T13:46:55.189Z,96748.81
2022-09-18T13:49:30.993Z,96747.00
2022-09-18T13:52:44.153Z,96739.13
2022-09-18T13:55:51.224Z,96740.25
2022-09-18T13:58:52.541Z,96742.31
2022-09-18T14:02:01.167Z,96743.09
2022-09-18T14:05:26.545Z,96744.50
2022-09-18T14:08:37.175Z,96735.03
2022-09-18T14:11:17.598Z,96744.16
2022-09-18T14:13:54.491Z,96741.41
2022-09-18T14:16:38.964Z,96740.94
2022-09-18T14:19:31.232Z,96738.47
2022-09-18T14:22:01.771Z,96729.88
2022-09-18T14:25:00.013Z,96728.38
2022-09-18T14:27:43.074Z,96736.13
2022-09-18T14:30:21.273Z,96732.03
2022-09-18T14:33:05.250Z,96728.81
2022-09-18T14:35:42.540Z,96726.63
2022-09-18T14:38:25.858Z,96718.63
2022-09-18T14:41:02.648Z,96714.16
2022-09-18T14:43:31.094Z,96709.91
2022-09-18T14:46:01.348Z,96705.78
2022-09-18T14:48:35.970Z,96724.28
2022-09-18T14:51:08.346Z,96723.63
2022-09-18T14:53:45.157Z,96719.06
2022-09-18T14:56:17.864Z,96724.75
2022-09-18T14:58:50.456Z,96725.38
2022-09-18T15:01:26.344Z,96713.78
2022-09-18T15:03:58.913Z,96709.56
2022-09-18T15:06:34.972Z,96719.03
2022-09-18T15:09:04.612Z,96714.69
2022-09-18T15:11:52.252Z,96711.97
2022-09-18T15:14:42.738Z,96706.28
2022-09-18T15:17:21.021Z,96702.41
2022-09-18T15:19:58.249Z,96703.66
2022-09-18T15:22:27.823Z,96709.28
2022-09-18T15:24:58.630Z,96702.66
2022-09-18T15:27:27.431Z,96704.94
2022-09-18T15:30:03.717Z,96702.88
2022-09-18T15:32:38.724Z,96700.78
2022-09-18T15:35:17.452Z,96695.78
2022-09-18T15:37:52.827Z,96705.94
2022-09-18T15:40:28.118Z,96711.06
2022-09-18T15:43:01.498Z,96699.22
2022-09-18T15:45:32.956Z,96707.75
2022-09-18T15:48:35.583Z,96712.75
2022-09-18T15:51:10.102Z,96690.50
2022-09-18T15:53:38.625Z,96687.78
2022-09-18T15:56:21.089Z,96689.59
2022-09-18T15:58:57.960Z,96678.50
2022-09-18T16:01:31.943Z,96675.28
2022-09-18T16:04:16.026Z,96679.50
2022-09-18T16:06:53.740Z,96668.44
2022-09-18T16:09:42.136Z,96668.44
2022-09-18T16:12:39.818Z,96668.44
2022-09-18T16:15:21.905Z,96664.88
2022-09-18T16:18:19.023Z,96663.75
2022-09-18T16:21:04.357Z,96664.09
2022-09-18T16:23:36.144Z,96663.31
2022-09-18T16:26:10.492Z,96666.03
2022-09-18T16:28:44.103Z,96660.91
2022-09-18T16:31:14.192Z,96658.94
2022-09-18T16:33:55.328Z,96655.75
2022-09-18T16:36:34.394Z,96661.91
2022-09-18T16:39:07.959Z,96658.72
2022-09-18T16:41:37.306Z,96663.03
2022-09-18T16:44:10.926Z,96657.44
2022-09-18T16:46:45.333Z,96665.50
2022-09-18T16:49:18.551Z,96661.16
2022-09-18T16:51:49.164Z,96663.00
2022-09-18T16:54:17.591Z,96664.44
2022-09-18T16:56:52.930Z,96663.16
2022-09-18T16:59:25.605Z,96658.84
2022-09-18T17:02:04.841Z,96664.97
2022-09-18T17:04:34.336Z,96662.91
2022-09-18T17:07:04.125Z,96660.19
2022-09-18T17:09:32.967Z,96666.09
2022-09-18T17:12:01.490Z,96666.44
2022-09-18T17:14:30.108Z,96666.78
2022-09-18T17:16:58.850Z,96676.13
2022-09-18T17:19:27.319Z,96669.06
2022-09-18T17:21:55.573Z,96671.31
2022-09-18T17:24:27.676Z,96676.66
2022-09-18T17:26:56.058Z,96671.53
2022-09-18T17:29:24.414Z,96672.66
2022-09-18T17:31:53.468Z,96680.84
2022-09-18T17:34:22.241Z,96670.72
2022-09-18T17:36:50.802Z,96671.84
2022-09-18T17:39:19.352Z,96674.47
2022-09-18T17:41:50.125Z,96681.59
2022-09-18T17:44:20.208Z,96679.59
2022-09-18T17:46:51.431Z,96680.06
2022-09-18T17:49:20.815Z,96677.22
2022-09-18T17:51:49.686Z,96670.31
2022-09-18T17:54:18.068Z,96669.53
2022-09-18T17:56:46.794Z,96668.41
2022-09-18T17:59:16.690Z,96660.88
2022-09-18T18:01:47.175Z,96663.94
2022-09-18T18:04:16.428Z,96665.56
2022-09-18T18:06:49.038Z,96673.25
2022-09-18T18:09:17.678Z,96675.53
2022-09-18T18:11:46.282Z,96675.72
2022-09-18T18:14:16.151Z,96671.09
2022-09-18T18:16:44.784Z,96671.94
2022-09-18T18:19:14.119Z,96684.16
2022-09-18T18:21:43.778Z,96675.84
2022-09-18T18:24:16.472Z,96670.06
2022-09-18T18:26:46.465Z,96672.81
2022-09-18T18:29:21.190Z,96671.06
2022-09-18T18:31:51.621Z,96675.56
2022-09-18T18:34:22.222Z,96674.78
2022-09-18T18:36:52.609Z,96670.75
2022-09-18T18:39:21.087Z,96670.75
2022-09-18T18:41:49.831Z,96670.75
2022-09-18T18:44:19.799Z,96670.75
2022-09-18T18:46:48.231Z,96668.81
2022-09-18T18:49:16.621Z,96673.69
2022-09-18T18:51:48.061Z,96663.88
2022-09-18T18:54:18.651Z,96666.59
2022-09-18T18:56:49.084Z,96669.34
2022-09-18T18:59:23.024Z,96660.81
2022-09-18T19:01:51.649Z,96655.22
2022-09-18T19:04:20.308Z,96649.91
2022-09-18T19:06:49.993Z,96650.72
2022-09-18T19:09:21.831Z,96649.56
2022-09-18T19:11:52.914Z,96657.28
2022-09-18T19:14:26.076Z,96656.69
2022-09-18T19:16:56.486Z,96655.41
2022-09-18T19:19:28.293Z,96644.00
2022-09-18T19:21:59.432Z,96644.53
2022-09-18T19:24:28.467Z,96645.16
2022-09-18T19:26:57.591Z,96643.56
2022-09-18T19:29:27.919Z,96648.22
2022-09-18T19:31:57.616Z,96647.41
2022-09-18T19:34:26.997Z,96647.56
2022-09-18T19:36:55.458Z,96650.78
2022-09-18T19:39:24.763Z,96647.06
2022-09-18T19:41:59.997Z,96654.09
2022-09-18T19:44:37.615Z,96652.84
2022-09-18T19:47:25.105Z,96644.03
2022-09-18T19:49:56.131Z,96643.41
2022-09-18T19:52:27.602Z,96645.31
2022-09-18T19:54:59.121Z,96645.50
2022-09-18T19:57:30.180Z,96644.06
2022-09-18T20:00:01.130Z,96633.31
2022-09-18T20:02:29.454Z,96640.56
2022-09-18T20:04:58.073Z,96629.47
2022-09-18T20:07:26.963Z,96633.66
2022-09-18T20:09:55.206Z,96625.81
2022-09-18T20:12:23.456Z,96628.22
2022-09-18T20:14:51.779Z,96633.34
2022-09-18T20:17:21.389Z,96630.13
2022-09-18T20:19:49.581Z,96630.94
2022-09-18T20:22:17.804Z,96622.94
2022-09-18T20:24:46.035Z,96628.72
2022-09-18T20:27:15.425Z,96620.53
2022-09-18T20:29:44.005Z,96616.66
2022-09-18T20:32:12.996Z,96623.91
2022-09-18T20:34:47.126Z,96622.47
2022-09-18T20:37:16.131Z,96618.44
2022-09-18T20:39:44.479Z,96622.94
2022-09-18T20:42:12.835Z,96621.00
2022-09-18T20:44:41.068Z,96613.66
2022-09-18T20:47:09.345Z,96626.31
2022-09-18T20:49:39.795Z,96621.97
2022-09-18T20:52:14.321Z,96617.50
2022-09-18T20:54:42.953Z,96618.13
2022-09-18T20:57:14.555Z,96616.38
2022-09-18T20:59:42.759Z,96615.88
2022-09-18T21:02:11.163Z,96622.47
2022-09-18T21:04:39.840Z,96611.06
2022-09-18T21:07:09.509Z,96603.22
2022-09-18T21:09:38.102Z,96613.97
2022-09-18T21:12:06.939Z,96615.09
2022-09-18T21:14:36.891Z,96593.44
2022-09-18T21:17:10.700Z,96598.09
2022-09-18T21:19:39.890Z,96600.03
2022-09-18T21:22:09.541Z,96597.47
2022-09-18T21:24:37.852Z,96593.13
2022-09-18T21:27:06.746Z,96595.84
2022-09-18T21:29:34.951Z,96596.66
2022-09-18T21:32:03.503Z,96580.63
2022-09-18T21:34:34.165Z,96591.53
2022-09-18T21:37:08.124Z,96587.53
2022-09-18T21:39:38.113Z,96581.94
2022-09-18T21:42:09.582Z,96581.59
2022-09-18T21:44:39.191Z,96580.31
2022-09-18T21:47:10.766Z,96586.09
2022-09-18T21:49:39.048Z,96592.81
2022-09-18T21:52:10.169Z,96581.75
2022-09-18T21:54:39.701Z,96581.94
2022-09-18T21:57:08.654Z,96580.31
2022-09-18T21:59:36.860Z,96583.50
2022-09-18T22:02:05.692Z,96594.41
2022-09-18T22:04:34.040Z,96585.59
2022-09-18T22:07:02.919Z,96584.97
2022-09-18T22:09:34.422Z,96586.56
2022-09-18T22:12:04.313Z,96584.97
2022-09-18T22:14:34.595Z,96584.78
2022-09-18T22:17:06.251Z,96588.66
2022-09-18T22:19:39.286Z,96580.00
2022-09-18T22:22:10.379Z,96583.06
2022-09-18T22:24:38.809Z,96578.72
2022-09-18T22:27:08.938Z,96582.41
2022-09-18T22:29:39.408Z,96591.03
2022-09-18T22:32:08.940Z,96587.19
2022-09-18T22:34:37.528Z,96590.25
2022-09-18T22:37:07.290Z,96598.25
2022-09-18T22:39:35.581Z,96588.63
2022-09-18T22:42:04.107Z,96598.91
2022-09-18T22:44:33.721Z,96590.72
2022-09-18T22:47:02.919Z,96586.56
2022-09-18T22:49:31.240Z,96596.50
2022-09-18T22:51:59.502Z,96599.22
2022-09-18T22:54:28.585Z,96594.09
2022-09-18T22:56:57.406Z,96591.38
2022-09-18T22:59:28.524Z,96596.03
2022-09-18T23:02:02.281Z,96602.91
2022-09-18T23:04:33.674Z,96605.94
2022-09-18T23:07:03.336Z,96652.22
2022-09-18T23:09:32.309Z,96662.63
2022-09-18T23:12:01.373Z,96647.91
2022-09-18T23:14:32.241Z,96659.31
2022-09-18T23:17:02.947Z,96660.88
2022-09-18T23:19:34.377Z,96656.38
2022-09-18T23:22:03.404Z,96657.34
2022-09-18T23:24:31.721Z,96653.66
2022-09-18T23:27:00.331Z,96650.38
2022-09-18T23:29:31.791Z,96661.06
2022-09-18T23:32:01.532Z,96670.22
2022-09-18T23:34:33.646Z,96670.94
2022-09-18T23:37:02.162Z,96664.66
2022-09-18T23:39:32.556Z,96672.03
2022-09-18T23:42:03.102Z,96664.88
2022-09-18T23:44:32.200Z,96677.75
2022-09-18T23:47:02.645Z,96676.94
2022-09-18T23:49:32.285Z,96677.75
2022-09-18T23:52:01.511Z,96678.88
2022-09-18T23:54:32.982Z,96675.00
2022-09-18T23:57:01.330Z,96673.38
2022-09-18T23:59:30.179Z,96676.81
